< < Back
Terminal Aerodrome Forecast


Current Version              Previous Versions:   1  2  3  4  5  6  7  8  9  

Terminal Aerodrome Forecast

047
FTUS42 KTAE 291130
TAFTLH
TAF
KTLH 291130Z 2912/3012 07006KT P6SM FEW080
     FM300200 00000KT P6SM SKC=

Latest METAR

027
SAUS80 KWBC 300700 RRA
MTRTLH
METAR KTLH 300653Z AUTO 00000KT 10SM CLR 07/04 A3027 RMK AO2 SLP249
T00670044


USA.gov is the U.S. government's official web portal to all federal, state and local government web resources and services.